Time;durP1;ratioP1;P1;durP2;ratioP2;P2;SDS_P1;SDS_P2;PMS_P1;PMS_P2;Temp;Humidity;BMP_temperature;BMP_pressure;BME280_temperature;BME280_humidity;BME280_pressure;Samples;Min_cycle;Max_cycle;Signal;HPM_P1;HPM_P2
2024/01/09 06:07:20;;;;;;;16.13;4.72;;;;;;;-4.91;67.06;103098.78;5428615;24;21227;-75
2024/01/09 06:09:46;;;;;;;12.07;4.13;;;;;;;-4.92;67.26;103094.41;4851306;29;20033;-73
2024/01/09 06:12:11;;;;;;;16.67;4.75;;;;;;;-4.93;67.22;103097.88;4854646;29;20439;-74
2024/01/09 06:14:36;;;;;;;15.07;3.92;;;;;;;-4.93;66.92;103095.25;4847354;29;20455;-73
2024/01/09 06:17:02;;;;;;;10.55;3.50;;;;;;;-4.91;67.32;103095.28;4851413;29;20108;-74
2024/01/09 06:19:27;;;;;;;15.07;4.38;;;;;;;-4.93;66.76;103091.75;4848925;29;20473;-74
2024/01/09 06:21:52;;;;;;;17.05;5.30;;;;;;;-4.94;67.11;103100.47;4850022;29;20065;-75
2024/01/09 06:24:18;;;;;;;18.08;4.78;;;;;;;-4.95;67.62;103099.59;4854468;29;20322;-75
2024/01/09 06:26:43;;;;;;;17.80;5.07;;;;;;;-4.96;67.36;103097.78;4855733;29;20113;-75
2024/01/09 06:29:09;;;;;;;18.50;4.82;;;;;;;-4.94;67.18;103103.06;4853325;29;20033;-75
2024/01/09 06:31:35;;;;;;;13.20;3.72;;;;;;;-5.00;67.02;103106.41;4852733;29;20037;-74
2024/01/09 06:34:00;;;;;;;17.27;5.07;;;;;;;-5.02;66.84;103108.13;4852375;29;20039;-74
2024/01/09 06:36:25;;;;;;;13.95;4.07;;;;;;;-4.99;67.56;103120.41;4850030;29;20029;-73
2024/01/09 06:38:50;;;;;;;16.25;4.05;;;;;;;-4.99;67.29;103113.44;4846212;29;20038;-75
2024/01/09 06:41:16;;;;;;;15.30;4.47;;;;;;;-4.99;66.88;103113.44;4851009;29;20235;-77
2024/01/09 06:43:41;;;;;;;15.32;4.45;;;;;;;-5.01;66.89;103114.25;4852549;29;20029;-78
2024/01/09 06:46:07;;;;;;;17.13;4.40;;;;;;;-5.03;67.42;103127.31;4851387;29;20040;-77
2024/01/09 06:48:32;;;;;;;14.65;4.47;;;;;;;-5.04;67.38;103119.41;4852108;29;20029;-75
2024/01/09 06:50:57;;;;;;;17.65;5.28;;;;;;;-5.03;68.23;103124.69;4852620;29;20033;-75
2024/01/09 06:53:22;;;;;;;14.93;4.30;;;;;;;-5.04;67.41;103127.28;4852257;29;20110;-74
2024/01/09 06:55:48;;;;;;;16.13;4.32;;;;;;;-5.06;68.15;103132.47;4855474;29;20061;-74
2024/01/09 06:58:16;;;;;;;16.85;5.38;;;;;;;-5.08;67.64;103128.94;4849328;29;20934;-74
2024/01/09 07:00:41;;;;;;;15.98;4.25;;;;;;;-5.09;67.90;103130.66;4853908;29;20098;-74
2024/01/09 07:03:06;;;;;;;13.57;4.15;;;;;;;-5.08;67.97;103126.31;4852997;29;20033;-75
2024/01/09 07:05:32;;;;;;;16.75;4.68;;;;;;;-5.07;67.83;103125.44;4851559;29;20510;-75
2024/01/09 07:07:57;;;;;;;15.30;4.15;;;;;;;-5.06;67.71;103124.59;4845636;29;20072;-74
2024/01/09 07:10:22;;;;;;;17.17;4.88;;;;;;;-5.04;67.89;103127.28;4839288;29;20477;-75
2024/01/09 07:12:48;;;;;;;12.95;4.57;;;;;;;-5.05;68.03;103123.78;4845036;29;20046;-74
2024/01/09 07:15:14;;;;;;;14.60;4.63;;;;;;;-5.05;68.28;103133.34;4834662;29;20108;-73
2024/01/09 07:17:39;;;;;;;17.88;5.35;;;;;;;-5.09;68.06;103135.00;4840905;29;20294;-79
2024/01/09 07:20:06;;;;;;;16.50;4.72;;;;;;;-5.12;68.52;103127.06;4852432;29;20552;-79
2024/01/09 07:22:31;;;;;;;18.48;5.40;;;;;;;-5.12;68.27;103132.31;4842288;29;20044;-77
2024/01/09 07:24:56;;;;;;;14.93;4.07;;;;;;;-5.11;68.81;103134.06;4844008;29;20477;-80
2024/01/09 07:27:21;;;;;;;14.35;4.28;;;;;;;-5.12;68.72;103132.31;4842531;29;20048;-78
2024/01/09 07:29:47;;;;;;;15.32;4.40;;;;;;;-5.10;68.77;103135.84;4839970;29;20049;-79
2024/01/09 07:32:12;;;;;;;15.00;4.57;;;;;;;-5.11;68.50;103134.06;4854047;29;20450;-82
2024/01/09 07:34:37;;;;;;;17.45;4.93;;;;;;;-5.11;68.50;103140.22;4852418;29;20121;-81
2024/01/09 07:37:03;;;;;;;18.23;5.03;;;;;;;-5.13;68.61;103147.13;4828994;29;20101;-79
2024/01/09 07:39:28;;;;;;;14.73;4.28;;;;;;;-5.11;69.04;103160.28;4835158;29;20117;-77
2024/01/09 07:41:53;;;;;;;16.08;4.70;;;;;;;-5.13;68.85;103149.75;4850456;29;20151;-82
2024/01/09 07:44:20;;;;;;;19.63;5.95;;;;;;;-5.13;69.03;103157.63;4835076;29;20037;-80
2024/01/09 07:46:46;;;;;;;15.98;5.07;;;;;;;-5.13;68.80;103156.75;4834890;29;20510;-80
2024/01/09 07:49:11;;;;;;;19.05;5.57;;;;;;;-5.12;68.90;103163.78;4828344;29;20100;-79
2024/01/09 07:51:36;;;;;;;18.42;5.05;;;;;;;-5.09;68.97;103161.22;4834932;29;20022;-78
2024/01/09 07:54:02;;;;;;;16.02;4.93;;;;;;;-5.09;68.62;103159.50;4835079;29;20037;-77
2024/01/09 07:56:27;;;;;;;16.90;5.18;;;;;;;-5.07;68.63;103161.28;4834650;29;20026;-79
2024/01/09 07:58:52;;;;;;;16.80;4.68;;;;;;;-5.07;68.51;103162.16;4837439;29;20031;-79
2024/01/09 08:01:18;;;;;;;17.70;5.43;;;;;;;-5.06;68.84;103163.94;4836155;29;20165;-78
2024/01/09 08:03:44;;;;;;;15.25;4.88;;;;;;;-5.04;68.46;103162.25;4838416;29;20030;-79
2024/01/09 08:06:17;;;;;;;18.15;5.43;;;;;;;-5.10;68.01;103170.81;4848869;29;20038;-79
2024/01/09 08:08:43;;;;;;;16.25;4.90;;;;;;;-5.12;68.95;103163.78;4850177;29;20191;-80
2024/01/09 08:11:09;;;;;;;16.50;4.80;;;;;;;-5.13;68.52;103164.59;4835807;29;20350;-78
2024/01/09 08:13:37;;;;;;;24.10;5.63;;;;;;;-5.12;68.53;103169.91;4852047;29;20431;-79
2024/01/09 08:16:04;;;;;;;18.77;5.50;;;;;;;-5.10;68.45;103173.44;4845514;29;20026;-80
2024/01/09 08:18:29;;;;;;;17.38;5.20;;;;;;;-5.09;69.61;103174.34;4834846;29;20030;-79
2024/01/09 08:20:55;;;;;;;18.25;4.90;;;;;;;-5.07;68.54;103174.38;4855304;29;20394;-79
2024/01/09 08:23:20;;;;;;;16.02;5.32;;;;;;;-5.08;69.23;103176.13;4838605;29;20128;-80
2024/01/09 08:25:46;;;;;;;18.40;5.90;;;;;;;-5.02;69.39;103170.16;4850712;29;20086;-80
2024/01/09 08:28:11;;;;;;;16.13;4.77;;;;;;;-4.99;68.82;103181.63;4854259;29;20521;-74
2024/01/09 08:30:36;;;;;;;15.48;4.28;;;;;;;-5.00;69.10;103179.84;4836457;29;20038;-74
2024/01/09 08:33:02;;;;;;;16.63;4.65;;;;;;;-4.97;68.83;103179.06;4839704;29;20162;-75
2024/01/09 08:35:27;;;;;;;21.15;5.63;;;;;;;-4.98;68.70;103179.88;4842833;29;20073;-74
2024/01/09 08:37:53;;;;;;;18.57;5.17;;;;;;;-4.96;68.85;103173.84;4838874;29;20025;-74
2024/01/09 08:40:18;;;;;;;15.52;4.88;;;;;;;-4.96;68.46;103184.34;4836755;29;20045;-74
2024/01/09 08:42:43;;;;;;;18.33;5.38;;;;;;;-4.97;68.91;103182.56;4851967;29;20029;-74
2024/01/09 08:45:09;;;;;;;17.55;5.20;;;;;;;-4.99;68.91;103181.63;4839376;29;20069;-74
2024/01/09 08:47:35;;;;;;;15.80;5.22;;;;;;;-4.98;68.95;103178.19;4839214;29;20089;-74
2024/01/09 08:50:01;;;;;;;18.58;5.43;;;;;;;-4.97;68.75;103182.56;4838600;29;20140;-74
2024/01/09 08:52:27;;;;;;;19.97;5.90;;;;;;;-5.02;68.81;103186.78;4853023;29;20025;-74
2024/01/09 08:54:53;;;;;;;16.60;5.00;;;;;;;-4.98;69.15;103178.19;4841842;29;20394;-74
2024/01/09 08:57:19;;;;;;;17.40;5.07;;;;;;;-4.96;68.68;103181.72;4840328;29;20198;-74
2024/01/09 08:59:44;;;;;;;17.60;5.57;;;;;;;-4.93;68.40;103184.44;4849513;29;20121;-75
2024/01/09 09:02:09;;;;;;;19.20;5.55;;;;;;;-4.91;68.53;103187.97;4835666;29;20042;-74
2024/01/09 09:04:34;;;;;;;20.08;5.70;;;;;;;-4.89;68.10;103189.75;4836346;29;20116;-74
2024/01/09 09:07:00;;;;;;;16.45;5.32;;;;;;;-4.87;67.94;103191.59;4838511;29;20038;-75
2024/01/09 09:09:25;;;;;;;17.83;5.93;;;;;;;-4.84;68.46;103189.03;4836841;29;20053;-74
2024/01/09 09:11:50;;;;;;;19.88;6.07;;;;;;;-4.81;68.32;103193.50;4838013;29;20134;-74
2024/01/09 09:14:16;;;;;;;15.48;4.93;;;;;;;-4.77;67.75;103198.00;4838298;29;20086;-74
2024/01/09 09:16:43;;;;;;;19.20;5.57;;;;;;;-4.78;67.58;103197.09;4835966;29;20034;-74
2024/01/09 09:19:08;;;;;;;18.40;5.18;;;;;;;-4.76;67.17;103191.88;4856328;29;20465;-75
2024/01/09 09:21:33;;;;;;;18.88;5.80;;;;;;;-4.73;67.29;103199.81;4841828;29;20068;-75
2024/01/09 09:23:59;;;;;;;16.15;4.93;;;;;;;-4.70;67.19;103199.03;4850460;29;20435;-75
2024/01/09 09:26:24;;;;;;;17.25;5.13;;;;;;;-4.70;66.55;103194.69;4840196;29;20053;-77
2024/01/09 09:28:50;;;;;;;16.40;4.68;;;;;;;-4.70;66.80;103189.44;4837687;29;20033;-76
2024/01/09 09:31:15;;;;;;;20.10;6.20;;;;;;;-4.68;66.32;103193.00;4859471;29;20457;-75
2024/01/09 09:33:44;;;;;;;16.27;5.32;;;;;;;-4.66;66.07;103186.03;4848265;29;20097;-72
2024/01/09 09:36:11;;;;;;;20.75;6.45;;;;;;;-4.63;66.59;103191.38;4862186;29;20042;-78
2024/01/09 09:38:37;;;;;;;20.27;6.72;;;;;;;-4.56;66.30;103181.94;4838013;29;20183;-77
2024/01/09 09:41:07;;;;;;;19.98;5.93;;;;;;;-4.51;65.51;103195.19;4841798;29;20109;-76
2024/01/09 09:43:35;;;;;;;18.25;5.28;;;;;;;-4.48;65.45;103187.38;4841168;29;20078;-77
2024/01/09 09:46:02;;;;;;;17.58;5.30;;;;;;;-4.46;65.04;103180.47;4852422;29;20041;-76
2024/01/09 09:48:28;;;;;;;18.05;5.38;;;;;;;-4.43;65.46;103181.41;4841211;29;20045;-73
2024/01/09 09:50:54;;;;;;;21.33;6.18;;;;;;;-4.37;64.94;103177.19;4838062;29;20490;-73
2024/01/09 09:53:24;;;;;;;14.85;5.20;;;;;;;-4.33;64.97;103182.56;4840932;29;20050;-73
2024/01/09 09:55:51;;;;;;;18.63;5.57;;;;;;;-4.31;64.67;103182.59;4841300;29;20034;-74
2024/01/09 09:58:16;;;;;;;20.00;6.15;;;;;;;-4.27;64.97;103185.34;4843063;29;20032;-75
2024/01/09 10:00:43;;;;;;;19.42;5.95;;;;;;;-4.19;64.58;103184.66;4857047;29;20402;-75
2024/01/09 10:03:11;;;;;;;19.48;5.97;;;;;;;-4.14;64.08;103185.63;4841012;29;20026;-75
2024/01/09 10:05:39;;;;;;;17.63;4.90;;;;;;;-4.07;64.39;103182.31;4854889;29;20524;-74
2024/01/09 10:08:09;;;;;;;18.15;5.32;;;;;;;-4.06;64.44;103169.22;4843701;29;20073;-74
2024/01/09 10:10:35;;;;;;;19.05;5.65;;;;;;;-4.07;63.38;103162.22;4844816;29;20553;-77
2024/01/09 10:13:01;;;;;;;18.48;5.53;;;;;;;-4.06;62.88;103163.09;4846222;29;20074;-76
2024/01/09 10:15:26;;;;;;;18.20;5.78;;;;;;;-4.07;62.95;103164.84;4846087;29;20046;-76
2024/01/09 10:17:52;;;;;;;17.80;5.38;;;;;;;-4.05;63.29;103159.63;4837527;29;20026;-75
2024/01/09 10:20:17;;;;;;;17.48;4.57;;;;;;;-4.02;63.56;103159.69;4840628;29;20034;-76
2024/01/09 10:22:43;;;;;;;16.63;5.07;;;;;;;-3.96;63.54;103154.59;4841036;29;20505;-75
2024/01/09 10:25:10;;;;;;;18.35;5.60;;;;;;;-3.93;62.13;103161.66;4844816;29;20066;-76
2024/01/09 10:27:37;;;;;;;19.60;5.68;;;;;;;-3.92;62.32;103156.44;4840105;29;20049;-76
2024/01/09 10:30:07;;;;;;;20.27;5.85;;;;;;;-3.86;62.61;103153.97;4840535;29;20124;-76
2024/01/09 10:32:33;;;;;;;21.98;5.53;;;;;;;-3.85;62.64;103154.88;4851733;29;20026;-75
2024/01/09 10:34:59;;;;;;;20.05;5.78;;;;;;;-3.80;62.31;103153.22;4864765;29;20394;-76
2024/01/09 10:37:24;;;;;;;18.50;6.13;;;;;;;-3.73;62.76;103156.91;4853918;29;20033;-76
2024/01/09 10:39:50;;;;;;;19.58;6.05;;;;;;;-3.69;61.80;103151.75;4843836;29;20542;-76
2024/01/09 10:42:15;;;;;;;19.60;5.10;;;;;;;-3.68;61.23;103144.75;4840108;29;20026;-77
2024/01/09 10:44:41;;;;;;;19.55;5.88;;;;;;;-3.65;61.91;103147.44;4854377;29;20182;-76
2024/01/09 10:47:13;;;;;;;14.65;4.60;;;;;;;-3.57;62.36;103143.25;4838640;29;20061;-75
2024/01/09 10:49:40;;;;;;;19.60;5.30;;;;;;;-3.54;61.11;103140.69;4840125;29;20026;-75
2024/01/09 10:52:11;;;;;;;20.10;5.65;;;;;;;-3.46;62.88;103145.22;4839831;29;20033;-77
2024/01/09 10:54:39;;;;;;;19.08;6.30;;;;;;;-3.47;60.11;103132.94;4839609;29;20116;-76
2024/01/09 10:57:05;;;;;;;19.58;5.75;;;;;;;-3.49;59.90;103132.91;4837813;29;20018;-78
2024/01/09 10:59:30;;;;;;;18.63;6.43;;;;;;;-3.49;59.82;103125.00;4857442;29;20042;-78
2024/01/09 11:01:56;;;;;;;17.73;5.22;;;;;;;-3.46;60.67;103121.56;4843527;29;20077;-75
2024/01/09 11:04:21;;;;;;;19.27;5.18;;;;;;;-3.42;60.35;103115.53;4848634;29;20038;-74
2024/01/09 11:06:48;;;;;;;17.23;5.00;;;;;;;-3.40;59.71;103111.19;4837864;29;20030;-77
2024/01/09 11:09:18;;;;;;;17.52;6.20;;;;;;;-3.38;59.39;103107.72;4836933;29;20410;-80
2024/01/09 11:11:45;;;;;;;18.23;6.18;;;;;;;-3.32;59.66;103112.22;4840387;29;20037;-80
2024/01/09 11:14:13;;;;;;;15.57;4.95;;;;;;;-3.26;59.44;103103.59;4852091;29;20018;-80
2024/01/09 11:16:43;;;;;;;17.70;5.25;;;;;;;-3.23;59.11;103101.03;4838334;29;20026;-78
2024/01/09 11:19:13;;;;;;;19.17;5.38;;;;;;;-3.19;59.53;103105.50;4841411;29;20029;-79
2024/01/09 11:21:38;;;;;;;18.27;6.07;;;;;;;-3.16;58.81;103095.91;4852732;29;20502;-78
2024/01/09 11:24:04;;;;;;;18.67;5.22;;;;;;;-3.12;58.98;103095.97;4837579;29;20045;-76
2024/01/09 11:26:34;;;;;;;17.92;5.22;;;;;;;-3.11;58.15;103103.00;4841013;29;20514;-76
2024/01/09 11:28:59;;;;;;;18.00;6.65;;;;;;;-3.11;57.07;103097.75;4838745;29;20033;-74
2024/01/09 11:31:27;;;;;;;17.13;4.90;;;;;;;-3.10;58.44;103087.25;4834855;29;20394;-75
2024/01/09 11:33:55;;;;;;;17.05;5.50;;;;;;;-3.08;57.37;103084.66;4845782;29;20029;-75
2024/01/09 11:36:30;;;;;;;20.48;6.40;;;;;;;-3.02;57.77;103084.75;4839148;29;20030;-74
2024/01/09 11:38:55;;;;;;;19.30;5.68;;;;;;;-2.99;57.13;103080.47;4851865;29;20026;-78
2024/01/09 11:41:23;;;;;;;18.05;5.05;;;;;;;-2.92;57.54;103077.94;4839704;29;20057;-75
2024/01/09 11:44:04;;;;;;;16.10;4.93;;;;;;;-2.88;56.99;103066.63;4832863;29;20018;-74
2024/01/09 11:46:32;;;;;;;18.42;5.47;;;;;;;-2.84;56.47;103069.34;4835071;29;20030;-74
2024/01/09 11:48:59;;;;;;;18.35;4.97;;;;;;;-2.79;55.62;103063.28;4852809;29;20108;-75
2024/01/09 11:51:25;;;;;;;15.95;4.72;;;;;;;-2.75;55.97;103059.81;4839040;29;20595;-74
2024/01/09 11:53:51;;;;;;;19.10;5.28;;;;;;;-2.69;56.32;103057.31;4839471;29;20101;-74
2024/01/09 11:56:18;;;;;;;17.67;5.63;;;;;;;-2.60;56.46;103068.00;4855598;29;20033;-72
2024/01/09 11:58:44;;;;;;;16.42;5.07;;;;;;;-2.55;55.40;103063.69;4844043;29;20030;-77
2024/01/09 12:01:10;;;;;;;22.55;5.93;;;;;;;-2.53;54.53;103063.72;4841459;29;20018;-75
2024/01/09 12:03:36;;;;;;;18.08;5.53;;;;;;;-2.54;54.17;103056.69;4837366;29;20076;-77
2024/01/09 12:06:04;;;;;;;17.55;4.68;;;;;;;-2.53;53.82;103058.47;4837162;29;20030;-77
2024/01/09 12:08:33;;;;;;;19.45;5.03;;;;;;;-2.49;54.90;103055.91;4837697;29;20046;-76
2024/01/09 12:10:59;;;;;;;17.33;5.88;;;;;;;-2.44;54.12;103047.19;4837826;29;20030;-75
2024/01/09 12:13:24;;;;;;;14.13;5.07;;;;;;;-2.40;54.18;103038.47;4850432;29;20040;-77
2024/01/09 12:15:50;;;;;;;20.52;5.95;;;;;;;-2.36;53.60;103040.28;4852304;29;20390;-76
2024/01/09 12:18:15;;;;;;;18.75;4.90;;;;;;;-2.35;53.22;103042.06;4839915;29;20029;-73
2024/01/09 12:20:41;;;;;;;16.13;4.78;;;;;;;-2.34;52.56;103033.31;4843486;29;20037;-78
2024/01/09 12:23:07;;;;;;;16.88;4.72;;;;;;;-2.32;52.11;103029.81;4840395;29;20049;-77
2024/01/09 12:25:32;;;;;;;16.10;4.72;;;;;;;-2.32;51.56;103029.81;4844146;29;20061;-76
2024/01/09 12:27:59;;;;;;;17.60;4.90;;;;;;;-2.30;51.81;103030.75;4841632;29;20472;-75
2024/01/09 12:30:25;;;;;;;18.40;5.40;;;;;;;-2.28;51.82;103031.66;4840312;29;20030;-75
2024/01/09 12:32:52;;;;;;;18.45;4.88;;;;;;;-2.25;51.34;103022.91;4843011;29;20094;-75
2024/01/09 12:35:17;;;;;;;15.85;4.22;;;;;;;-2.20;52.02;103026.50;4859395;29;20106;-74
2024/01/09 12:37:46;;;;;;;18.15;5.35;;;;;;;-2.16;50.91;103024.81;4846151;29;20470;-75
2024/01/09 12:40:21;;;;;;;16.00;4.47;;;;;;;-2.14;50.69;103026.59;4839090;29;20575;-75
2024/01/09 12:43:06;;;;;;;16.65;4.38;;;;;;;-2.08;52.15;103019.63;4841719;29;20029;-75
2024/01/09 12:45:31;;;;;;;15.23;4.40;;;;;;;-2.05;51.20;103019.69;4844032;29;20247;-77
2024/01/09 12:47:57;;;;;;;15.00;4.25;;;;;;;-2.03;50.27;103010.94;4846802;29;20474;-76
2024/01/09 12:50:28;;;;;;;16.05;4.95;;;;;;;-2.01;49.33;103009.19;4837282;29;20030;-74
2024/01/09 12:52:57;;;;;;;19.88;5.10;;;;;;;-2.00;49.79;103003.06;4837755;29;20030;-75
2024/01/09 12:55:22;;;;;;;14.60;4.55;;;;;;;-1.96;49.13;103006.66;4839314;29;20077;-78
2024/01/09 12:57:48;;;;;;;15.50;4.55;;;;;;;-1.92;49.22;102989.13;4844338;29;20077;-77
2024/01/09 13:00:14;;;;;;;14.93;3.90;;;;;;;-1.90;48.65;102985.66;4846629;29;20037;-75
2024/01/09 13:02:39;;;;;;;16.58;4.70;;;;;;;-1.85;48.51;102993.59;4841725;29;20037;-73
2024/01/09 13:05:04;;;;;;;14.27;4.30;;;;;;;-1.83;48.08;102984.88;4846235;29;20112;-77
2024/01/09 13:07:30;;;;;;;17.50;3.90;;;;;;;-1.80;47.92;102979.63;4864300;29;20234;-74
2024/01/09 13:09:55;;;;;;;14.52;4.45;;;;;;;-1.74;48.33;102980.56;4848259;29;20044;-74
2024/01/09 13:12:20;;;;;;;16.55;4.70;;;;;;;-1.71;47.71;102977.94;4844280;29;20142;-73
2024/01/09 13:14:46;;;;;;;16.40;3.88;;;;;;;-1.69;47.31;102973.59;4853147;29;20501;-75
2024/01/09 13:17:11;;;;;;;15.43;3.85;;;;;;;-1.67;47.19;102979.75;4855059;29;20029;-74
2024/01/09 13:19:36;;;;;;;9.80;3.35;;;;;;;-1.61;46.88;102979.81;4843359;29;20116;-74
2024/01/09 13:22:04;;;;;;;14.30;4.43;;;;;;;-1.60;46.23;102971.97;4857106;29;20026;-74
2024/01/09 13:24:29;;;;;;;15.50;4.28;;;;;;;-1.56;46.66;102969.38;4855783;29;20082;-74
2024/01/09 13:26:54;;;;;;;16.75;4.53;;;;;;;-1.53;45.80;102964.13;4845519;29;20428;-74
2024/01/09 13:29:23;;;;;;;15.23;3.78;;;;;;;-1.50;45.42;102961.50;4840732;29;20054;-74
2024/01/09 13:31:49;;;;;;;14.43;4.25;;;;;;;-1.49;45.58;102958.88;4840847;29;20040;-74
2024/01/09 13:34:16;;;;;;;14.75;3.97;;;;;;;-1.46;45.17;102965.97;4842297;29;20034;-74
2024/01/09 13:36:41;;;;;;;14.02;3.63;;;;;;;-1.44;45.25;102956.28;4856256;29;20849;-73
2024/01/09 13:39:09;;;;;;;17.98;4.68;;;;;;;-1.43;44.34;102951.03;4843447;29;20033;-73
2024/01/09 13:41:36;;;;;;;15.70;4.07;;;;;;;-1.42;44.25;102954.56;4844569;29;20042;-74
2024/01/09 13:44:01;;;;;;;13.95;4.28;;;;;;;-1.41;43.87;102944.03;4845628;29;20098;-74
2024/01/09 13:46:28;;;;;;;15.05;4.38;;;;;;;-1.39;44.06;102946.69;4850657;29;20037;-74
2024/01/09 13:48:54;;;;;;;14.00;4.05;;;;;;;-1.37;43.98;102946.72;4850431;29;20057;-74
2024/01/09 13:51:21;;;;;;;14.18;4.45;;;;;;;-1.36;43.99;102948.47;4842680;29;20084;-74
2024/01/09 13:53:47;;;;;;;13.27;3.92;;;;;;;-1.38;43.83;102947.56;4844101;29;20543;-74
2024/01/09 13:56:15;;;;;;;14.85;4.05;;;;;;;-1.36;44.46;102951.09;4843565;29;20045;-74
2024/01/09 13:58:41;;;;;;;18.08;4.32;;;;;;;-1.35;44.57;102951.09;4843939;29;20030;-74
2024/01/09 14:01:06;;;;;;;15.85;3.70;;;;;;;-1.32;44.90;102956.44;4852351;29;20021;-74
2024/01/09 14:03:31;;;;;;;12.82;3.78;;;;;;;-1.31;45.33;102949.41;4851824;29;20033;-75
2024/01/09 14:05:58;;;;;;;12.13;3.88;;;;;;;-1.28;43.95;102952.94;4846496;29;20076;-74
2024/01/09 14:08:23;;;;;;;17.15;4.43;;;;;;;-1.27;44.38;102952.09;4841859;29;20082;-74
2024/01/09 14:10:48;;;;;;;16.08;3.90;;;;;;;-1.25;44.55;102949.47;4841045;29;20478;-74
2024/01/09 14:13:14;;;;;;;14.88;4.68;;;;;;;-1.24;44.36;102951.25;4837088;29;20050;-74
2024/01/09 14:15:39;;;;;;;15.13;4.15;;;;;;;-1.23;44.20;102945.06;4859619;29;20108;-74
2024/01/09 14:18:05;;;;;;;12.95;4.38;;;;;;;-1.23;43.84;102955.63;4842734;29;20557;-76
2024/01/09 14:20:31;;;;;;;14.68;4.50;;;;;;;-1.25;43.68;102946.81;4842526;29;20037;-75
2024/01/09 14:22:56;;;;;;;17.60;4.45;;;;;;;-1.26;42.92;102945.03;4846757;29;20117;-73
2024/01/09 14:25:21;;;;;;;17.38;4.22;;;;;;;-1.26;43.14;102945.03;4841793;29;20516;-77
2024/01/09 14:27:47;;;;;;;14.30;4.10;;;;;;;-1.26;43.76;102955.59;4846621;29;20553;-75
2024/01/09 14:30:18;;;;;;;15.27;3.97;;;;;;;-1.27;43.42;102961.75;4842917;29;20550;-75
2024/01/09 14:32:47;;;;;;;16.40;3.95;;;;;;;-1.29;44.20;102950.28;4839373;29;20036;-76
2024/01/09 14:35:13;;;;;;;17.37;4.53;;;;;;;-1.29;43.67;102952.94;4839060;29;20108;-75
2024/01/09 14:37:39;;;;;;;12.13;3.72;;;;;;;-1.29;43.82;102943.28;4840740;29;20367;-74
2024/01/09 14:40:08;;;;;;;12.23;3.80;;;;;;;-1.29;44.70;102945.00;4840143;29;20037;-75
2024/01/09 14:42:34;;;;;;;13.05;3.70;;;;;;;-1.29;45.15;102937.09;4841986;29;20570;-80
2024/01/09 14:44:59;;;;;;;11.82;3.95;;;;;;;-1.30;44.27;102943.28;4839390;29;20117;-74
2024/01/09 14:47:27;;;;;;;16.10;4.90;;;;;;;-1.34;44.15;102942.34;4840127;29;20040;-74
2024/01/09 14:49:52;;;;;;;21.38;4.38;;;;;;;-1.34;44.17;102936.19;4835456;29;20036;-73
2024/01/09 14:52:18;;;;;;;16.10;3.95;;;;;;;-1.36;44.46;102930.91;4839842;29;20034;-73
2024/01/09 14:54:45;;;;;;;11.60;3.30;;;;;;;-1.38;44.35;102944.94;4839658;29;20033;-74
2024/01/09 14:57:12;;;;;;;12.23;3.47;;;;;;;-1.38;44.59;102942.28;4836503;29;20034;-75
2024/01/09 14:59:38;;;;;;;15.13;4.38;;;;;;;-1.38;45.61;102939.66;4841114;29;20156;-73
2024/01/09 15:02:04;;;;;;;16.58;5.05;;;;;;;-1.41;44.59;102937.88;4839918;29;20622;-74
2024/01/09 15:04:29;;;;;;;13.43;4.00;;;;;;;-1.43;44.56;102939.63;4854999;29;20089;-73
2024/01/09 15:06:54;;;;;;;14.10;4.45;;;;;;;-1.48;44.70;102934.31;4843127;29;20034;-75
2024/01/09 15:09:20;;;;;;;17.00;4.53;;;;;;;-1.50;44.99;102936.00;4846346;29;20068;-74
2024/01/09 15:11:45;;;;;;;17.65;4.90;;;;;;;-1.54;44.43;102925.41;4853174;29;20153;-74
2024/01/09 15:14:12;;;;;;;12.05;4.15;;;;;;;-1.56;44.68;102933.31;4836727;29;20045;-75
2024/01/09 15:16:38;;;;;;;15.07;4.40;;;;;;;-1.58;44.58;102941.22;4845572;29;20402;-76
2024/01/09 15:19:03;;;;;;;12.38;3.63;;;;;;;-1.59;45.21;102936.78;4838623;29;20033;-75
2024/01/09 15:21:32;;;;;;;10.68;3.67;;;;;;;-1.59;45.43;102949.09;4840536;29;20030;-74
2024/01/09 15:23:58;;;;;;;15.90;4.88;;;;;;;-1.62;45.63;102935.91;4851356;29;20144;-74
2024/01/09 15:26:23;;;;;;;16.40;4.78;;;;;;;-1.63;45.43;102940.25;4851913;29;20049;-74
2024/01/09 15:28:48;;;;;;;11.95;4.10;;;;;;;-1.65;45.94;102947.28;4838212;29;20041;-74
2024/01/09 15:31:18;;;;;;;12.82;3.47;;;;;;;-1.65;46.10;102949.91;4848943;29;20128;-74
2024/01/09 15:33:44;;;;;;;14.98;4.70;;;;;;;-1.67;45.94;102954.31;4843877;29;20658;-74
2024/01/09 15:36:11;;;;;;;16.75;4.57;;;;;;;-1.70;45.64;102956.00;4841657;29;20034;-75
2024/01/09 15:38:36;;;;;;;14.80;4.28;;;;;;;-1.72;45.93;102955.13;4844194;29;20017;-76
2024/01/09 15:41:03;;;;;;;13.73;4.60;;;;;;;-1.74;47.40;102957.72;4838344;29;20062;-75
2024/01/09 15:43:28;;;;;;;16.55;4.60;;;;;;;-1.77;46.66;102960.34;4841460;29;20034;-76
2024/01/09 15:45:54;;;;;;;15.15;4.70;;;;;;;-1.82;46.44;102949.72;4858422;29;20504;-76
2024/01/09 15:48:19;;;;;;;17.85;5.07;;;;;;;-1.82;46.55;102954.97;4854711;29;20120;-76
2024/01/09 15:50:44;;;;;;;16.67;4.90;;;;;;;-1.86;47.21;102958.47;4835810;29;20082;-77
2024/01/09 15:53:10;;;;;;;20.38;4.85;;;;;;;-1.89;46.98;102953.13;4838968;29;20065;-75
2024/01/09 15:55:35;;;;;;;16.55;5.13;;;;;;;-1.91;46.74;102954.88;4841924;29;20071;-75
2024/01/09 15:58:02;;;;;;;14.55;4.10;;;;;;;-1.98;46.97;102956.56;4840754;29;20093;-81
2024/01/09 16:00:27;;;;;;;18.20;5.15;;;;;;;-2.02;47.33;102940.66;4856085;29;20048;-82
2024/01/09 16:02:53;;;;;;;15.32;4.25;;;;;;;-2.04;47.67;102945.03;4841256;29;20030;-83
2024/01/09 16:05:18;;;;;;;16.88;4.55;;;;;;;-2.07;48.02;102945.00;4844473;29;20034;-78
2024/01/09 16:07:44;;;;;;;12.98;3.95;;;;;;;-2.11;48.32;102931.81;4839203;29;20525;-81
2024/01/09 16:10:09;;;;;;;16.52;4.75;;;;;;;-2.15;48.02;102937.88;4861698;29;20124;-81
2024/01/09 16:12:36;;;;;;;12.63;3.78;;;;;;;-2.17;48.23;102936.97;4841522;29;20042;-75
2024/01/09 16:15:01;;;;;;;17.00;4.45;;;;;;;-2.20;48.70;102934.28;4844864;29;20030;-80
2024/01/09 16:17:27;;;;;;;18.45;4.78;;;;;;;-2.22;48.86;102936.03;4838833;29;20456;-78
2024/01/09 16:19:52;;;;;;;15.45;4.53;;;;;;;-2.23;48.91;102946.56;4851900;29;20037;-78
2024/01/09 16:22:20;;;;;;;16.25;4.20;;;;;;;-2.26;48.83;102944.75;4846081;29;20510;-79
2024/01/09 16:24:46;;;;;;;14.55;4.28;;;;;;;-2.28;49.42;102947.38;4835120;29;20154;-79
2024/01/09 16:27:12;;;;;;;13.43;4.20;;;;;;;-2.31;48.66;102946.44;4839096;29;20110;-78
2024/01/09 16:29:37;;;;;;;15.23;4.70;;;;;;;-2.34;49.64;102955.19;4843334;29;20116;-78
2024/01/09 16:32:03;;;;;;;14.32;3.88;;;;;;;-2.35;49.11;102957.81;4847978;29;20028;-78
2024/01/09 16:34:28;;;;;;;16.67;4.65;;;;;;;-2.38;49.58;102961.25;4838274;29;20045;-78
2024/01/09 16:36:53;;;;;;;16.42;3.90;;;;;;;-2.40;49.40;102951.56;4841654;29;20034;-76
2024/01/09 16:39:19;;;;;;;15.07;4.25;;;;;;;-2.41;49.49;102955.09;4862590;29;20041;-78
2024/01/09 16:41:45;;;;;;;15.57;4.13;;;;;;;-2.43;50.11;102944.53;4847377;29;20041;-76
2024/01/09 16:44:11;;;;;;;13.98;4.18;;;;;;;-2.42;49.46;102950.66;4844680;29;20030;-81
2024/01/09 16:46:44;;;;;;;16.25;4.55;;;;;;;-2.48;49.84;102941.81;4860136;29;20120;-78
2024/01/09 16:49:09;;;;;;;15.70;4.55;;;;;;;-2.52;49.95;102942.66;4842423;29;20082;-79
2024/01/09 16:51:35;;;;;;;15.45;4.43;;;;;;;-2.55;50.65;102941.69;4842599;29;20030;-78
2024/01/09 16:54:00;;;;;;;12.50;3.92;;;;;;;-2.55;50.19;102944.31;4839915;29;20517;-77
2024/01/09 16:56:26;;;;;;;16.45;4.00;;;;;;;-2.56;50.08;102951.34;4854235;29;20061;-79
2024/01/09 16:58:54;;;;;;;14.55;4.35;;;;;;;-2.58;50.00;102955.69;4841411;29;20569;-78
2024/01/09 17:01:23;;;;;;;15.35;3.88;;;;;;;-2.58;50.13;102958.31;4843005;29;20038;-78
2024/01/09 17:03:50;;;;;;;18.40;4.72;;;;;;;-2.58;51.09;102957.44;4845336;29;20037;-79
2024/01/09 17:06:15;;;;;;;18.23;4.60;;;;;;;-2.60;50.22;102959.19;4861702;29;20090;-78
2024/01/09 17:08:41;;;;;;;14.52;3.70;;;;;;;-2.61;50.49;102963.53;4849833;29;20498;-76
2024/01/09 17:11:08;;;;;;;14.52;4.00;;;;;;;-2.61;50.30;102965.31;4846407;29;20569;-76
2024/01/09 17:13:33;;;;;;;15.82;4.57;;;;;;;-2.60;50.15;102967.97;4851570;29;20081;-76
2024/01/09 17:15:58;;;;;;;14.25;3.90;;;;;;;-2.61;50.82;102966.19;4852720;29;20438;-76
2024/01/09 17:18:24;;;;;;;11.98;4.30;;;;;;;-2.62;50.85;102969.69;4853459;29;20033;-76